Time,TemperatureF,DewpointF,PressureIn,WindDirection,WindDirectionDegrees,WindSpeedMPH,WindSpeedGustMPH,Humidity,HourlyPrecipIn,Conditions,Clouds,dailyrainin,SoftwareType,DateUTC
2013-03-03 00:00:00,40.3,32.3,30.02,WSW,246,1.0,1.0,73,0.00,,,0.00,Wunderground v.1.15,2013-03-03 05:00:00,
2013-03-03 00:10:00,40.4,32.4,30.02,NNW,342,1.0,1.0,73,0.00,,,0.00,Wunderground v.1.15,2013-03-03 05:10:00,
2013-03-03 00:20:00,40.3,32.3,30.01,ENE,78,1.0,1.0,73,0.00,,,0.00,Wunderground v.1.15,2013-03-03 05:20:00,
2013-03-03 00:30:00,40.1,32.1,30.01,NW,325,1.0,1.0,73,0.00,,,0.00,Wunderground v.1.15,2013-03-03 05:30:00,
2013-03-03 00:40:00,40.1,32.1,30.01,NNW,331,1.0,4.0,73,0.00,,,0.00,Wunderground v.1.15,2013-03-03 05:40:00,
2013-03-03 00:50:00,40.2,32.2,30.01,WSW,250,1.0,1.0,73,0.00,,,0.00,Wunderground v.1.15,2013-03-03 05:50:00,
2013-03-03 01:00:00,40.1,32.5,30.01,West,267,0.0,4.0,74,0.00,,,0.00,Wunderground v.1.15,2013-03-03 06:00:00,
2013-03-03 01:10:00,40.0,32.4,30.01,WNW,287,0.0,4.0,74,0.00,,,0.00,Wunderground v.1.15,2013-03-03 06:10:00,
2013-03-03 01:20:00,40.0,32.7,30.01,West,268,0.0,5.0,75,0.00,,,0.00,Wunderground v.1.15,2013-03-03 06:20:00,
2013-03-03 01:30:00,40.1,32.5,30.01,West,269,1.0,4.0,74,0.00,,,0.00,Wunderground v.1.15,2013-03-03 06:30:00,
2013-03-03 01:40:00,40.1,32.8,30.01,SSW,209,1.0,1.0,75,0.00,,,0.00,Wunderground v.1.15,2013-03-03 06:40:00,
2013-03-03 01:50:00,40.1,32.8,30.02,WSW,238,1.0,1.0,75,0.00,,,0.00,Wunderground v.1.15,2013-03-03 06:50:00,
2013-03-03 02:00:00,40.1,32.8,30.02,SSW,204,1.0,1.0,75,0.00,,,0.00,Wunderground v.1.15,2013-03-03 07:00:00,
2013-03-03 02:10:00,40.1,32.8,30.02,SSW,204,1.0,1.0,75,0.00,,,0.00,Wunderground v.1.15,2013-03-03 07:10:00,
2013-03-03 02:20:00,40.0,32.7,30.01,WSW,240,0.0,4.0,75,0.00,,,0.00,Wunderground v.1.15,2013-03-03 07:20:00,
2013-03-03 02:30:00,39.9,32.9,30.01,WNW,296,1.0,1.0,76,0.00,,,0.00,Wunderground v.1.15,2013-03-03 07:30:00,
2013-03-03 02:40:00,39.6,32.7,30.01,WSW,253,1.0,4.0,76,0.00,,,0.00,Wunderground v.1.15,2013-03-03 07:40:00,
2013-03-03 02:50:00,39.6,32.7,30.01,South,180,1.0,4.0,76,0.00,,,0.00,Wunderground v.1.15,2013-03-03 07:50:00,
2013-03-03 03:00:00,39.6,33.0,30.01,West,265,1.0,1.0,77,0.00,,,0.00,Wunderground v.1.15,2013-03-03 08:00:00,
2013-03-03 03:10:00,39.6,33.3,30.01,SW,231,1.0,1.0,78,0.00,,,0.00,Wunderground v.1.15,2013-03-03 08:10:00,
2013-03-03 03:20:00,39.5,33.2,30.01,South,181,1.0,1.0,78,0.00,,,0.00,Wunderground v.1.15,2013-03-03 08:20:00,
2013-03-03 03:30:00,39.5,33.2,30.01,ESE,107,1.0,1.0,78,0.00,,,0.00,Wunderground v.1.15,2013-03-03 08:30:00,
2013-03-03 03:40:00,39.4,32.8,30.01,SSE,166,1.0,1.0,77,0.00,,,0.00,Wunderground v.1.15,2013-03-03 08:40:00,
2013-03-03 03:50:00,39.4,33.1,30.00,NW,311,1.0,4.0,78,0.00,,,0.00,Wunderground v.1.15,2013-03-03 08:50:00,
2013-03-03 04:00:00,39.3,33.0,30.01,WSW,253,0.0,4.0,78,0.00,,,0.00,Wunderground v.1.15,2013-03-03 09:00:00,
2013-03-03 04:10:00,39.2,32.9,30.01,SSW,210,1.0,1.0,78,0.00,,,0.00,Wunderground v.1.15,2013-03-03 09:10:00,
2013-03-03 04:20:00,39.1,33.1,30.01,West,260,1.0,1.0,79,0.00,,,0.00,Wunderground v.1.15,2013-03-03 09:20:00,
2013-03-03 04:30:00,39.2,32.9,30.01,SW,221,1.0,4.0,78,0.00,,,0.00,Wunderground v.1.15,2013-03-03 09:30:00,
2013-03-03 04:40:00,39.2,32.9,30.00,WSW,240,1.0,4.0,78,0.00,,,0.00,Wunderground v.1.15,2013-03-03 09:40:00,
2013-03-03 04:50:00,39.1,33.1,30.00,WSW,255,1.0,4.0,79,0.00,,,0.00,Wunderground v.1.15,2013-03-03 09:50:00,
2013-03-03 05:00:00,39.1,33.1,30.00,West,261,1.0,4.0,79,0.00,,,0.00,Wunderground v.1.15,2013-03-03 10:00:00,
2013-03-03 05:10:00,39.0,33.0,30.01,SSW,193,1.0,4.0,79,0.00,,,0.00,Wunderground v.1.15,2013-03-03 10:10:00,
2013-03-03 05:20:00,38.8,33.2,30.01,NNW,331,1.0,1.0,80,0.00,,,0.00,Wunderground v.1.15,2013-03-03 10:20:00,
2013-03-03 05:30:00,38.6,33.0,30.01,SSW,205,1.0,1.0,80,0.00,,,0.00,Wunderground v.1.15,2013-03-03 10:30:00,
2013-03-03 05:40:00,38.6,33.3,30.02,West,265,1.0,4.0,81,0.00,,,0.00,Wunderground v.1.15,2013-03-03 10:40:00,
2013-03-03 05:50:00,38.4,33.1,30.02,West,267,1.0,1.0,81,0.00,,,0.00,Wunderground v.1.15,2013-03-03 10:50:00,
2013-03-03 06:00:00,38.4,33.1,30.02,WSW,242,1.0,1.0,81,0.00,,,0.00,Wunderground v.1.15,2013-03-03 11:00:00,
2013-03-03 06:10:00,38.4,33.1,30.03,South,188,1.0,5.0,81,0.00,,,0.00,Wunderground v.1.15,2013-03-03 11:10:00,
2013-03-03 06:20:00,38.4,32.8,30.03,NW,309,1.0,4.0,80,0.00,,,0.00,Wunderground v.1.15,2013-03-03 11:20:00,
2013-03-03 06:30:00,38.2,32.6,30.03,WSW,252,1.0,1.0,80,0.00,,,0.00,Wunderground v.1.15,2013-03-03 11:30:00,
2013-03-03 06:40:00,38.0,32.7,30.04,WSW,256,0.0,4.0,81,0.00,,,0.00,Wunderground v.1.15,2013-03-03 11:40:00,
2013-03-03 06:50:00,37.8,32.5,30.03,WNW,284,1.0,1.0,81,0.00,,,0.00,Wunderground v.1.15,2013-03-03 11:50:00,
2013-03-03 07:00:00,37.6,32.3,30.04,SW,229,1.0,1.0,81,0.00,,,0.00,Wunderground v.1.15,2013-03-03 12:00:00,
2013-03-03 07:10:00,37.6,32.3,30.04,South,175,1.0,1.0,81,0.00,,,0.00,Wunderground v.1.15,2013-03-03 12:10:00,
2013-03-03 07:20:00,37.7,32.4,30.04,SW,228,1.0,1.0,81,0.00,,,0.00,Wunderground v.1.15,2013-03-03 12:20:00,
2013-03-03 07:30:00,37.9,32.6,30.05,SSW,202,1.0,1.0,81,0.00,,,0.00,Wunderground v.1.15,2013-03-03 12:30:00,
2013-03-03 07:40:00,38.2,32.6,30.05,WSW,256,2.0,2.0,80,0.00,,,0.00,Wunderground v.1.15,2013-03-03 12:40:00,
2013-03-03 07:50:00,38.6,33.0,30.05,South,190,1.0,6.0,80,0.00,,,0.00,Wunderground v.1.15,2013-03-03 12:50:00,
2013-03-03 08:00:00,39.0,32.7,30.05,West,280,2.0,2.0,78,0.00,,,0.00,Wunderground v.1.15,2013-03-03 13:00:00,
2013-03-03 08:10:00,39.3,32.7,30.06,West,273,2.0,2.0,77,0.00,,,0.00,Wunderground v.1.15,2013-03-03 13:10:00,
2013-03-03 08:20:00,39.8,32.8,30.06,SSW,210,2.0,2.0,76,0.00,,,0.00,Wunderground v.1.15,2013-03-03 13:20:00,
2013-03-03 08:30:00,40.3,32.7,30.06,NNW,330,1.0,1.0,74,0.00,,,0.00,Wunderground v.1.15,2013-03-03 13:30:00,
2013-03-03 08:40:00,40.5,32.2,30.06,ENE,77,1.0,1.0,72,0.00,,,0.00,Wunderground v.1.15,2013-03-03 13:40:00,
2013-03-03 08:50:00,41.2,32.5,30.06,NNE,28,1.0,4.0,71,0.00,,,0.00,Wunderground v.1.15,2013-03-03 13:50:00,
2013-03-03 09:00:00,41.3,31.5,30.06,NNW,338,2.0,2.0,68,0.00,,,0.00,Wunderground v.1.15,2013-03-03 14:00:00,
2013-03-03 09:10:00,41.5,31.7,30.07,West,280,3.0,3.0,68,0.00,,,0.00,Wunderground v.1.15,2013-03-03 14:10:00,
2013-03-03 09:20:00,42.3,32.8,30.07,WNW,289,1.0,4.0,69,0.00,,,0.00,Wunderground v.1.15,2013-03-03 14:20:00,
2013-03-03 09:30:00,42.9,32.7,30.07,WNW,292,1.0,4.0,67,0.00,,,0.00,Wunderground v.1.15,2013-03-03 14:30:00,
2013-03-03 09:40:00,43.1,31.7,30.06,North,9,2.0,2.0,64,0.00,,,0.00,Wunderground v.1.15,2013-03-03 14:40:00,
2013-03-03 09:50:00,43.2,31.4,30.06,South,183,3.0,4.0,63,0.00,,,0.00,Wunderground v.1.15,2013-03-03 14:50:00,
2013-03-03 10:00:00,43.4,31.6,30.06,WSW,247,2.0,2.0,63,0.00,,,0.00,Wunderground v.1.15,2013-03-03 15:00:00,
2013-03-03 10:10:00,43.2,31.1,30.06,WSW,257,2.0,2.0,62,0.00,,,0.00,Wunderground v.1.15,2013-03-03 15:10:00,
2013-03-03 10:20:00,43.2,29.8,30.06,SSW,194,3.0,10.0,59,0.00,,,0.00,Wunderground v.1.15,2013-03-03 15:20:00,
2013-03-03 10:30:00,43.4,30.4,30.06,SSE,155,2.0,2.0,60,0.00,,,0.00,Wunderground v.1.15,2013-03-03 15:30:00,
2013-03-03 10:40:00,43.6,30.6,30.06,WSW,245,2.0,6.0,60,0.00,,,0.00,Wunderground v.1.15,2013-03-03 15:40:00,
2013-03-03 10:50:00,43.6,31.4,30.06,WSW,251,3.0,10.0,62,0.00,,,0.00,Wunderground v.1.15,2013-03-03 15:50:00,
2013-03-03 11:00:00,43.7,30.7,30.07,NNE,14,1.0,1.0,60,0.00,,,0.00,Wunderground v.1.15,2013-03-03 16:00:00,
2013-03-03 11:10:00,43.4,30.4,30.07,WNW,288,2.0,2.0,60,0.00,,,0.00,Wunderground v.1.15,2013-03-03 16:10:00,
2013-03-03 11:20:00,43.4,30.0,30.07,SW,232,2.0,2.0,59,0.00,,,0.00,Wunderground v.1.15,2013-03-03 16:20:00,
2013-03-03 11:30:00,43.3,30.7,30.07,South,173,1.0,4.0,61,0.00,,,0.00,Wunderground v.1.15,2013-03-03 16:30:00,
2013-03-03 11:40:00,43.3,29.9,30.06,West,266,3.0,4.0,59,0.00,,,0.00,Wunderground v.1.15,2013-03-03 16:40:00,
2013-03-03 11:50:00,43.1,31.0,30.06,WNW,296,3.0,3.0,62,0.00,,,0.00,Wunderground v.1.15,2013-03-03 16:50:00,
2013-03-03 12:00:00,43.3,30.7,30.06,SSW,213,1.0,7.0,61,0.00,,,0.00,Wunderground v.1.15,2013-03-03 17:00:00,
2013-03-03 12:10:00,43.4,30.0,30.06,West,270,2.0,2.0,59,0.00,,,0.00,Wunderground v.1.15,2013-03-03 17:10:00,
2013-03-03 12:20:00,43.8,30.0,30.06,WSW,250,3.0,3.0,58,0.00,,,0.00,Wunderground v.1.15,2013-03-03 17:20:00,
2013-03-03 12:30:00,44.0,31.0,30.05,ENE,67,2.0,2.0,60,0.00,,,0.00,Wunderground v.1.15,2013-03-03 17:30:00,
2013-03-03 12:40:00,44.3,30.4,30.05,SW,228,2.0,4.0,58,0.00,,,0.00,Wunderground v.1.15,2013-03-03 17:40:00,
2013-03-03 12:50:00,44.5,30.6,30.04,WSW,250,3.0,3.0,58,0.00,,,0.00,Wunderground v.1.15,2013-03-03 17:50:00,
2013-03-03 13:00:00,44.6,30.7,30.05,South,174,2.0,2.0,58,0.00,,,0.00,Wunderground v.1.15,2013-03-03 18:00:00,
2013-03-03 13:10:00,44.2,29.5,30.04,SSW,211,3.0,3.0,56,0.00,,,0.00,Wunderground v.1.15,2013-03-03 18:10:00,
2013-03-03 13:20:00,44.2,29.9,30.04,West,265,3.0,4.0,57,0.00,,,0.00,Wunderground v.1.15,2013-03-03 18:20:00,
2013-03-03 13:30:00,44.2,30.8,30.03,West,271,3.0,9.0,59,0.00,,,0.00,Wunderground v.1.15,2013-03-03 18:30:00,
2013-03-03 13:40:00,44.1,29.8,30.03,West,265,3.0,4.0,57,0.00,,,0.00,Wunderground v.1.15,2013-03-03 18:40:00,
2013-03-03 13:50:00,44.5,30.2,30.02,West,281,4.0,4.0,57,0.00,,,0.00,Wunderground v.1.15,2013-03-03 18:50:00,
2013-03-03 14:00:00,44.4,30.1,30.02,South,175,5.0,5.0,57,0.00,,,0.00,Wunderground v.1.15,2013-03-03 19:00:00,
2013-03-03 14:10:00,44.5,29.8,30.02,West,263,2.0,11.0,56,0.00,,,0.00,Wunderground v.1.15,2013-03-03 19:10:00,
2013-03-03 14:20:00,44.5,29.8,30.02,WSW,246,4.0,14.0,56,0.00,,,0.00,Wunderground v.1.15,2013-03-03 19:20:00,
2013-03-03 14:30:00,44.5,30.6,30.02,SW,236,5.0,5.0,58,0.00,,,0.00,Wunderground v.1.15,2013-03-03 19:30:00,
2013-03-03 14:40:00,44.6,29.9,30.02,SW,231,5.0,5.0,56,0.00,,,0.00,Wunderground v.1.15,2013-03-03 19:40:00,
2013-03-03 14:50:00,44.7,30.8,30.02,WSW,244,3.0,8.0,58,0.00,,,0.00,Wunderground v.1.15,2013-03-03 19:50:00,
2013-03-03 15:00:00,44.7,31.2,30.02,SW,215,4.0,6.0,59,0.00,,,0.00,Wunderground v.1.15,2013-03-03 20:00:00,
2013-03-03 15:10:00,44.7,30.8,30.02,SSW,213,4.0,4.0,58,0.00,,,0.00,Wunderground v.1.15,2013-03-03 20:10:00,
2013-03-03 15:20:00,44.7,30.8,30.02,WSW,252,4.0,10.0,58,0.00,,,0.00,Wunderground v.1.15,2013-03-03 20:20:00,
2013-03-03 15:30:00,44.5,30.6,30.02,WSW,250,5.0,5.0,58,0.00,,,0.00,Wunderground v.1.15,2013-03-03 20:30:00,
2013-03-03 15:40:00,44.7,30.8,30.02,WSW,249,5.0,5.0,58,0.00,,,0.00,Wunderground v.1.15,2013-03-03 20:40:00,
2013-03-03 15:50:00,44.7,31.2,30.02,SSW,203,5.0,5.0,59,0.00,,,0.00,Wunderground v.1.15,2013-03-03 20:50:00,
2013-03-03 16:00:00,45.0,31.5,30.03,WSW,248,4.0,4.0,59,0.00,,,0.00,Wunderground v.1.15,2013-03-03 21:00:00,
2013-03-03 16:10:00,46.2,31.4,30.03,SSE,157,2.0,2.0,56,0.00,,,0.00,Wunderground v.1.15,2013-03-03 21:10:00,
2013-03-03 16:20:00,46.1,30.8,30.02,SE,144,4.0,5.0,55,0.00,,,0.00,Wunderground v.1.15,2013-03-03 21:20:00,
2013-03-03 16:30:00,45.9,31.1,30.02,West,265,3.0,3.0,56,0.00,,,0.00,Wunderground v.1.15,2013-03-03 21:30:00,
2013-03-03 16:40:00,46.0,30.3,30.02,SW,236,3.0,3.0,54,0.00,,,0.00,Wunderground v.1.15,2013-03-03 21:40:00,
2013-03-03 16:50:00,46.1,29.4,30.02,WSW,244,4.0,4.0,52,0.00,,,0.00,Wunderground v.1.15,2013-03-03 21:50:00,
2013-03-03 17:00:00,46.4,30.2,30.02,South,186,4.0,4.0,53,0.00,,,0.00,Wunderground v.1.15,2013-03-03 22:00:00,
2013-03-03 17:10:00,46.3,31.0,30.02,West,264,2.0,2.0,55,0.00,,,0.00,Wunderground v.1.15,2013-03-03 22:10:00,
2013-03-03 17:20:00,46.1,29.9,30.02,NW,311,2.0,2.0,53,0.00,,,0.00,Wunderground v.1.15,2013-03-03 22:20:00,
2013-03-03 17:30:00,46.1,29.9,30.03,West,261,3.0,9.0,53,0.00,,,0.00,Wunderground v.1.15,2013-03-03 22:30:00,
2013-03-03 17:40:00,45.8,29.6,30.03,West,265,1.0,4.0,53,0.00,,,0.00,Wunderground v.1.15,2013-03-03 22:40:00,
2013-03-03 17:50:00,45.3,30.1,30.04,SSE,153,1.0,1.0,55,0.00,,,0.00,Wunderground v.1.15,2013-03-03 22:50:00,
2013-03-03 18:00:00,45.1,29.9,30.04,SSW,205,2.0,2.0,55,0.00,,,0.00,Wunderground v.1.15,2013-03-03 23:00:00,
2013-03-03 18:10:00,44.8,29.2,30.05,West,269,2.0,5.0,54,0.00,,,0.00,Wunderground v.1.15,2013-03-03 23:10:00,
2013-03-03 18:20:00,44.6,29.9,30.05,SSW,209,2.0,4.0,56,0.00,,,0.00,Wunderground v.1.15,2013-03-03 23:20:00,
2013-03-03 18:30:00,44.3,29.6,30.06,SW,216,1.0,4.0,56,0.00,,,0.00,Wunderground v.1.15,2013-03-03 23:30:00,
2013-03-03 18:40:00,44.1,30.3,30.06,West,267,2.0,4.0,58,0.00,,,0.00,Wunderground v.1.15,2013-03-03 23:40:00,
2013-03-03 18:50:00,43.9,30.5,30.07,South,188,1.0,1.0,59,0.00,,,0.00,Wunderground v.1.15,2013-03-03 23:50:00,
2013-03-03 19:00:00,43.6,30.2,30.07,SSW,192,0.0,4.0,59,0.00,,,0.00,Wunderground v.1.15,2013-03-04 00:00:00,
2013-03-03 19:10:00,43.2,30.6,30.08,NNE,16,0.0,4.0,61,0.00,,,0.00,Wunderground v.1.15,2013-03-04 00:10:00,
2013-03-03 19:20:00,42.9,30.0,30.08,South,187,0.0,4.0,60,0.00,,,0.00,Wunderground v.1.15,2013-03-04 00:20:00,
2013-03-03 19:30:00,42.6,30.1,30.09,North,355,1.0,1.0,61,0.00,,,0.00,Wunderground v.1.15,2013-03-04 00:30:00,
2013-03-03 19:40:00,42.3,29.8,30.09,West,264,0.0,4.0,61,0.00,,,0.00,Wunderground v.1.15,2013-03-04 00:40:00,
2013-03-03 19:50:00,41.9,29.8,30.09,SW,223,0.0,4.0,62,0.00,,,0.00,Wunderground v.1.15,2013-03-04 00:50:00,
2013-03-03 20:00:00,41.8,29.7,30.10,WNW,284,0.0,4.0,62,0.00,,,0.00,Wunderground v.1.15,2013-03-04 01:00:00,
2013-03-03 20:10:00,41.4,29.7,30.11,South,174,0.0,4.0,63,0.00,,,0.00,Wunderground v.1.15,2013-03-04 01:10:00,
2013-03-03 20:20:00,41.4,29.7,30.11,West,269,0.0,5.0,63,0.00,,,0.00,Wunderground v.1.15,2013-03-04 01:20:00,
2013-03-03 20:30:00,41.4,30.1,30.11,SW,229,0.0,4.0,64,0.00,,,0.00,Wunderground v.1.15,2013-03-04 01:30:00,
2013-03-03 20:40:00,41.1,29.8,30.11,WSW,250,0.0,4.0,64,0.00,,,0.00,Wunderground v.1.15,2013-03-04 01:40:00,
2013-03-03 20:50:00,41.0,30.1,30.12,WSW,246,0.0,4.0,65,0.00,,,0.00,Wunderground v.1.15,2013-03-04 01:50:00,
2013-03-03 21:00:00,40.8,29.9,30.13,SE,126,0.0,4.0,65,0.00,,,0.00,Wunderground v.1.15,2013-03-04 02:00:00,
2013-03-03 21:10:00,40.6,29.7,30.13,NNW,334,0.0,4.0,65,0.00,,,0.00,Wunderground v.1.15,2013-03-04 02:10:00,
2013-03-03 21:20:00,40.4,29.9,30.13,South,181,0.0,4.0,66,0.00,,,0.00,Wunderground v.1.15,2013-03-04 02:20:00,
2013-03-03 21:30:00,40.4,30.3,30.14,WSW,248,0.0,4.0,67,0.00,,,0.00,Wunderground v.1.15,2013-03-04 02:30:00,
2013-03-03 21:40:00,40.4,29.9,30.14,WSW,252,0.0,4.0,66,0.00,,,0.00,Wunderground v.1.15,2013-03-04 02:40:00,
2013-03-03 21:50:00,40.4,30.3,30.14,WNW,288,0.0,4.0,67,0.00,,,0.00,Wunderground v.1.15,2013-03-04 02:50:00,
2013-03-03 22:00:00,40.2,30.5,30.15,SW,229,0.0,4.0,68,0.00,,,0.00,Wunderground v.1.15,2013-03-04 03:00:00,
2013-03-03 22:10:00,40.1,30.0,30.15,SW,224,0.0,4.0,67,0.00,,,0.00,Wunderground v.1.15,2013-03-04 03:10:00,
2013-03-03 22:20:00,40.1,30.4,30.15,SSW,207,1.0,1.0,68,0.00,,,0.00,Wunderground v.1.15,2013-03-04 03:20:00,
2013-03-03 22:30:00,40.0,30.6,30.15,SSW,213,0.0,4.0,69,0.00,,,0.00,Wunderground v.1.15,2013-03-04 03:30:00,
2013-03-03 22:40:00,40.0,30.6,30.15,WSW,254,0.0,4.0,69,0.00,,,0.00,Wunderground v.1.15,2013-03-04 03:40:00,
2013-03-03 22:50:00,40.1,30.7,30.15,West,265,0.0,4.0,69,0.00,,,0.00,Wunderground v.1.15,2013-03-04 03:50:00,
2013-03-03 23:00:00,39.8,30.8,30.15,SW,219,0.0,4.0,70,0.00,,,0.00,Wunderground v.1.15,2013-03-04 04:00:00,
2013-03-03 23:10:00,39.8,30.8,30.15,SSW,198,0.0,4.0,70,0.00,,,0.00,Wunderground v.1.15,2013-03-04 04:10:00,
2013-03-03 23:20:00,39.7,30.7,30.14,South,189,0.0,4.0,70,0.00,,,0.00,Wunderground v.1.15,2013-03-04 04:20:00,
2013-03-03 23:30:00,39.7,31.1,30.14,SSW,204,0.0,4.0,71,0.00,,,0.00,Wunderground v.1.15,2013-03-04 04:30:00,
2013-03-03 23:40:00,39.7,31.8,30.14,South,176,0.0,4.0,73,0.00,,,0.00,Wunderground v.1.15,2013-03-04 04:40:00,
2013-03-03 23:50:00,39.3,31.4,30.14,SSW,197,0.0,4.0,73,0.00,,,0.00,Wunderground v.1.15,2013-03-04 04:50:00,